Time;durP1;ratioP1;P1;durP2;ratioP2;P2;SDS_P1;SDS_P2;PMS_P1;PMS_P2;Temp;Humidity;BMP_temperature;BMP_pressure;BME280_temperature;BME280_humidity;BME280_pressure;Samples;Min_cycle;Max_cycle;Signal;HPM_P1;HPM_P2
2023/05/24 00:19:53;;;;;;;23.60;14.27;;;17.20;82.70;;;;;;4566355;31;20099;-95
2023/05/24 00:23:51;;;;;;;20.75;13.80;;;17.10;82.50;;;;;;4548168;31;20062;-95
2023/05/24 00:27:38;;;;;;;;;;;;;;;;;;;;;
2023/05/24 00:30:46;;;;;;;24.33;14.02;;;17.00;82.70;;;;;;4648563;30;20054;-95
2023/05/24 00:33:17;;;;;;;22.75;13.90;;;17.00;82.50;;;;;;4696076;30;20061;-95
2023/05/24 00:36:09;;;;;;;;;;;;;;;;;;;;;
2023/05/24 00:38:54;;;;;;;24.35;16.23;;;17.00;82.60;;;;;;4732156;30;20052;-96
2023/05/24 00:41:26;;;;;;;24.83;14.67;;;17.00;82.70;;;;;;4717391;30;20045;-96
2023/05/24 00:43:53;;;;;;;22.08;14.32;;;17.00;82.40;;;;;;4717363;30;20053;-95
2023/05/24 00:46:28;;;;;;;24.08;15.48;;;16.90;82.50;;;;;;4732039;30;20057;-95
2023/05/24 00:48:59;;;;;;;23.90;14.70;;;16.90;82.60;;;;;;4731463;30;20049;-96
2023/05/24 00:51:31;;;;;;;23.52;14.48;;;16.90;82.40;;;;;;4731548;30;20049;-96
2023/05/24 00:54:12;;;;;;;23.77;15.57;;;16.80;82.60;;;;;;4716631;30;20061;-95
2023/05/24 00:56:47;;;;;;;23.58;14.38;;;16.80;82.70;;;;;;4702656;30;20053;-96
2023/05/24 00:59:26;;;;;;;21.48;13.88;;;16.80;82.70;;;;;;4730483;30;20049;-95
2023/05/24 01:02:00;;;;;;;22.10;13.57;;;16.80;82.60;;;;;;4716664;30;20255;-95
2023/05/24 01:04:43;;;;;;;21.13;13.27;;;16.80;82.30;;;;;;4730300;30;20049;-95
2023/05/24 01:07:36;;;;;;;22.23;14.07;;;16.80;82.10;;;;;;4716948;30;20115;-95
2023/05/24 01:10:30;;;;;;;22.08;13.57;;;16.90;82.20;;;;;;4731627;30;20147;-96
2023/05/24 01:13:18;;;;;;;24.90;15.48;;;16.90;82.20;;;;;;4716572;30;20061;-95
2023/05/24 01:16:05;;;;;;;21.05;13.02;;;16.80;82.00;;;;;;4716886;30;20151;-95
2023/05/24 01:18:58;;;;;;;20.75;12.93;;;16.80;82.00;;;;;;4718438;30;20139;-95
2023/05/24 01:22:10;;;;;;;23.87;13.97;;;16.80;82.00;;;;;;4731417;30;20057;-95
2023/05/24 01:24:57;;;;;;;24.67;13.63;;;16.60;82.10;;;;;;4731101;30;20049;-95
2023/05/24 01:27:33;;;;;;;29.42;14.00;;;16.60;82.30;;;;;;4731438;30;20072;-96
2023/05/24 01:30:15;;;;;;;23.10;14.10;;;16.60;82.20;;;;;;4715804;30;20061;-95
2023/05/24 01:32:46;;;;;;;24.50;14.70;;;16.60;82.00;;;;;;4731973;30;20060;-96
2023/05/24 01:35:40;;;;;;;24.37;14.43;;;16.60;82.30;;;;;;4715551;30;20061;-95
2023/05/24 01:38:25;;;;;;;24.10;14.25;;;16.50;82.00;;;;;;4715043;30;20049;-94
2023/05/24 01:55:11;;;;;;;25.00;14.53;;;16.50;82.40;;;;;;4668708;30;20057;-96
2023/05/24 02:02:54;;;;;;;27.58;16.23;;;16.60;81.90;;;;;;4634421;31;20131;-95
2023/05/24 03:01:10;;;;;;;;;;;;;;;;;;;;;
2023/05/24 03:03:40;;;;;;;32.70;17.40;;;16.30;83.00;;;;;;4756666;30;20052;-94
2023/05/24 03:06:15;;;;;;;31.40;18.55;;;16.30;83.00;;;;;;4770094;30;20535;-96
2023/05/24 03:08:48;;;;;;;29.70;18.55;;;16.30;83.20;;;;;;4754781;30;20056;-96
2023/05/24 03:11:57;;;;;;;32.88;20.08;;;16.30;83.10;;;;;;4773037;30;20056;-96
2023/05/24 03:20:26;;;;;;;;;;;;;;;;;;;;;
2023/05/24 03:38:40;;;;;;;44.42;22.10;;;15.90;84.80;;;;;;4671889;30;20085;-96
2023/05/24 03:41:51;;;;;;;38.87;21.67;;;16.00;84.50;;;;;;4685389;30;20069;-96
2023/05/24 03:45:28;;;;;;;36.38;20.25;;;16.00;84.70;;;;;;4614887;31;20136;-96
2023/05/24 03:49:32;;;;;;;;;;;;;;;;;;;;;
2023/05/24 03:52:46;;;;;;;31.15;19.33;;;15.90;84.60;;;;;;4561487;31;20053;-96
2023/05/24 03:56:25;;;;;;;35.80;20.17;;;15.80;84.90;;;;;;4573350;31;20189;-96
2023/05/24 03:58:59;;;;;;;35.13;18.03;;;15.70;84.90;;;;;;4568981;31;20545;-94
2023/05/24 04:01:27;;;;;;;31.92;18.00;;;15.50;85.00;;;;;;4579258;31;20052;-91
2023/05/24 04:04:02;;;;;;;28.88;17.30;;;15.50;85.40;;;;;;4614791;31;20052;-93
2023/05/24 04:06:29;;;;;;;37.58;18.92;;;15.50;85.60;;;;;;4615213;31;20077;-93
2023/05/24 04:08:59;;;;;;;32.33;19.27;;;15.50;85.30;;;;;;4632636;30;20562;-93
2023/05/24 04:15:30;;;;;;;30.17;17.83;;;15.50;85.10;;;;;;4699978;30;20037;-93
2023/05/24 04:17:59;;;;;;;28.25;17.98;;;15.50;85.20;;;;;;4695375;30;20056;-93
2023/05/24 04:20:28;;;;;;;26.95;15.65;;;15.50;85.10;;;;;;4753113;30;20052;-93
2023/05/24 04:22:58;;;;;;;24.80;15.50;;;15.40;84.30;;;;;;4738037;30;20499;-93
2023/05/24 04:25:28;;;;;;;28.17;17.23;;;15.20;84.80;;;;;;4738300;30;20101;-93
2023/05/24 04:27:56;;;;;;;25.75;13.88;;;15.00;85.30;;;;;;4752920;30;20063;-93
2023/05/24 04:30:24;;;;;;;29.20;16.42;;;15.00;85.30;;;;;;4767065;30;20060;-93
2023/05/24 04:32:56;;;;;;;24.17;12.95;;;15.00;85.50;;;;;;4752768;30;20188;-93
2023/05/24 04:35:27;;;;;;;25.67;12.85;;;14.90;85.10;;;;;;4737751;30;20063;-93
2023/05/24 04:37:56;;;;;;;23.37;11.97;;;14.80;85.10;;;;;;4767122;30;20060;-93
2023/05/24 04:40:26;;;;;;;23.20;10.70;;;14.70;85.40;;;;;;4752700;30;20052;-94
2023/05/24 04:42:56;;;;;;;22.88;11.77;;;14.60;85.00;;;;;;4737941;30;20052;-93
2023/05/24 04:45:23;;;;;;;23.45;10.65;;;14.50;85.40;;;;;;4737889;30;20056;-94
2023/05/24 04:47:51;;;;;;;26.17;11.52;;;14.50;85.00;;;;;;4767685;30;20423;-93
2023/05/24 04:50:18;;;;;;;21.93;10.40;;;14.50;85.20;;;;;;4737690;30;20508;-94
2023/05/24 04:52:45;;;;;;;22.83;11.10;;;14.50;85.20;;;;;;4752350;30;20512;-94
2023/05/24 04:55:13;;;;;;;22.48;11.52;;;14.50;85.30;;;;;;4767231;30;20060;-93
2023/05/24 04:57:40;;;;;;;23.90;10.43;;;14.50;85.00;;;;;;4752395;30;20056;-93
2023/05/24 05:00:09;;;;;;;18.13;9.60;;;14.50;84.60;;;;;;4779728;30;20503;-93
2023/05/24 05:02:36;;;;;;;17.27;8.80;;;14.50;84.60;;;;;;4769994;30;20055;-94
2023/05/24 05:05:04;;;;;;;17.75;8.63;;;14.50;84.30;;;;;;4755549;30;20058;-93
2023/05/24 05:07:32;;;;;;;16.77;8.60;;;14.50;84.30;;;;;;4784730;30;20063;-93
2023/05/24 05:09:59;;;;;;;19.33;8.57;;;14.50;84.00;;;;;;4755630;30;20066;-93
2023/05/24 05:12:29;;;;;;;20.83;12.77;;;14.50;84.30;;;;;;4755112;30;20052;-94
2023/05/24 05:14:57;;;;;;;17.07;9.40;;;14.50;84.30;;;;;;4755223;30;20075;-94
2023/05/24 05:17:24;;;;;;;18.33;9.80;;;14.50;84.20;;;;;;4774587;30;20059;-96
2023/05/24 05:19:52;;;;;;;17.38;9.77;;;14.50;84.00;;;;;;4758781;30;20056;-94
2023/05/24 05:22:19;;;;;;;17.70;8.98;;;14.50;84.10;;;;;;4774902;30;20052;-94
2023/05/24 05:24:49;;;;;;;15.30;8.65;;;14.40;84.00;;;;;;4760237;30;20052;-94
2023/05/24 05:27:16;;;;;;;16.87;8.97;;;14.20;84.40;;;;;;4774042;30;20052;-94
2023/05/24 05:29:43;;;;;;;15.48;8.65;;;14.20;84.60;;;;;;4774212;30;20055;-93
2023/05/24 05:32:10;;;;;;;18.70;8.85;;;14.20;84.40;;;;;;4788202;30;20048;-91
2023/05/24 05:34:38;;;;;;;12.93;5.70;;;14.00;84.10;;;;;;4773359;30;20051;-91
2023/05/24 05:37:05;;;;;;;15.82;6.95;;;14.00;83.70;;;;;;4743971;30;20519;-92
2023/05/24 05:39:32;;;;;;;14.67;5.60;;;13.80;83.60;;;;;;4767298;30;20491;-90
2023/05/24 05:42:01;;;;;;;14.95;5.82;;;13.70;84.00;;;;;;4763289;30;20051;-89
2023/05/24 05:44:36;;;;;;;11.40;4.47;;;13.70;84.00;;;;;;4759148;30;20523;-91
2023/05/24 05:47:08;;;;;;;12.85;4.43;;;13.60;83.00;;;;;;4759564;30;20052;-94
2023/05/24 05:49:35;;;;;;;12.23;4.30;;;13.50;82.70;;;;;;4787941;30;20104;-91
2023/05/24 05:52:04;;;;;;;10.27;3.53;;;13.40;82.40;;;;;;4763264;30;20055;-91
2023/05/24 05:54:31;;;;;;;9.75;3.83;;;13.30;82.90;;;;;;4764354;30;20385;-90
2023/05/24 05:56:59;;;;;;;9.13;3.30;;;13.30;83.00;;;;;;4761852;30;20127;-92
2023/05/24 05:59:27;;;;;;;10.10;3.70;;;13.30;83.00;;;;;;4766398;30;20523;-92
2023/05/24 06:01:54;;;;;;;11.25;4.85;;;13.40;83.00;;;;;;4749233;30;20048;-90
2023/05/24 06:04:21;;;;;;;12.53;3.50;;;13.40;83.00;;;;;;4757448;30;20483;-91
2023/05/24 06:06:48;;;;;;;9.65;3.70;;;13.50;82.20;;;;;;4767929;30;20474;-90
2023/05/24 06:09:16;;;;;;;12.90;4.47;;;13.50;82.20;;;;;;4761016;30;20054;-91
2023/05/24 06:11:43;;;;;;;10.85;4.55;;;13.50;82.50;;;;;;4772385;30;20056;-91
2023/05/24 06:14:18;;;;;;;16.50;10.40;;;13.60;82.70;;;;;;4763625;30;20055;-90
2023/05/24 06:16:46;;;;;;;12.03;4.50;;;13.70;81.70;;;;;;4757839;30;20506;-92
2023/05/24 06:19:15;;;;;;;10.93;3.80;;;13.70;81.30;;;;;;4757634;30;20058;-91
2023/05/24 06:21:46;;;;;;;10.05;4.22;;;13.80;81.40;;;;;;4772661;30;20586;-90
2023/05/24 06:24:19;;;;;;;8.40;3.80;;;13.80;81.00;;;;;;4766482;30;20058;-91
2023/05/24 06:26:47;;;;;;;13.48;4.40;;;13.80;81.10;;;;;;4771960;30;20054;-90
2023/05/24 06:29:14;;;;;;;8.77;3.97;;;13.90;81.50;;;;;;4775578;30;20058;-90
2023/05/24 06:31:42;;;;;;;9.82;3.80;;;13.90;81.10;;;;;;4765767;30;20048;-90
2023/05/24 06:34:09;;;;;;;9.52;4.35;;;13.90;80.90;;;;;;4761338;30;20067;-90
2023/05/24 06:36:41;;;;;;;10.75;4.28;;;14.00;80.70;;;;;;4747179;30;20059;-91
2023/05/24 06:43:40;;;;;;;15.50;7.50;;;13.90;81.10;;;;;;4770779;30;20024;-89
2023/05/24 06:46:08;;;;;;;11.25;5.60;;;13.90;81.40;;;;;;4762515;30;20055;-90
2023/05/24 06:48:35;;;;;;;10.85;5.65;;;13.90;80.90;;;;;;4755566;30;20418;-91
2023/05/24 06:51:02;;;;;;;10.63;5.53;;;14.00;80.50;;;;;;4758646;30;20100;-89
2023/05/24 06:53:30;;;;;;;12.57;5.82;;;14.00;80.00;;;;;;4755605;30;20051;-91
2023/05/24 06:55:57;;;;;;;12.27;6.30;;;13.70;80.20;;;;;;4744140;30;20091;-89
2023/05/24 06:58:24;;;;;;;10.68;5.20;;;13.60;80.70;;;;;;4770911;30;20128;-92
2023/05/24 07:02:15;;;;;;;11.75;5.75;;;13.60;80.90;;;;;;4756592;30;20056;-91
2023/05/24 07:04:43;;;;;;;11.05;4.40;;;13.70;80.70;;;;;;4742472;30;20483;-92
2023/05/24 07:07:11;;;;;;;11.25;4.40;;;13.60;80.00;;;;;;4768836;30;20101;-92
2023/05/24 07:09:41;;;;;;;10.30;5.20;;;13.50;79.50;;;;;;4761039;30;20055;-92
2023/05/24 07:12:08;;;;;;;12.63;5.05;;;13.50;80.20;;;;;;4756687;30;20507;-93
2023/05/24 07:14:35;;;;;;;12.63;5.38;;;13.50;79.40;;;;;;4759234;30;20388;-89
2023/05/24 07:17:03;;;;;;;11.70;5.32;;;13.30;79.60;;;;;;4771466;30;20072;-89
2023/05/24 07:19:32;;;;;;;10.77;5.80;;;13.40;80.40;;;;;;4763472;30;20051;-89
2023/05/24 07:21:59;;;;;;;9.43;5.20;;;13.40;80.30;;;;;;4763842;30;20056;-89
2023/05/24 07:24:27;;;;;;;10.25;5.47;;;13.40;79.50;;;;;;4761174;30;20139;-89
2023/05/24 07:26:56;;;;;;;10.20;5.80;;;13.50;79.50;;;;;;4773657;30;20385;-90
2023/05/24 07:29:24;;;;;;;8.77;4.35;;;13.60;79.10;;;;;;4763897;30;20060;-90
2023/05/24 07:31:55;;;;;;;8.40;4.13;;;13.60;78.70;;;;;;4768830;30;20117;-90
2023/05/24 07:34:26;;;;;;;12.30;6.97;;;13.60;79.00;;;;;;4763385;30;20508;-91
2023/05/24 07:36:53;;;;;;;9.25;4.57;;;13.70;78.30;;;;;;4760775;30;20392;-90
2023/05/24 07:39:20;;;;;;;11.77;5.35;;;13.70;77.70;;;;;;4761107;30;20047;-90
2023/05/24 07:41:47;;;;;;;10.43;5.05;;;13.70;78.30;;;;;;4772749;30;20200;-89
2023/05/24 07:44:18;;;;;;;7.63;3.20;;;13.70;78.20;;;;;;4768885;30;20070;-92
2023/05/24 07:46:45;;;;;;;8.57;3.50;;;13.60;77.80;;;;;;4771136;30;20054;-93
2023/05/24 07:49:12;;;;;;;9.40;5.40;;;13.60;78.00;;;;;;4756521;30;20068;-92
2023/05/24 07:51:39;;;;;;;10.52;4.65;;;13.60;78.00;;;;;;4770891;30;20056;-92
2023/05/24 07:54:07;;;;;;;9.93;6.05;;;13.50;78.40;;;;;;4757255;30;20056;-93
2023/05/24 07:56:34;;;;;;;8.23;4.60;;;13.50;78.50;;;;;;4756300;30;20459;-94
2023/05/24 07:59:05;;;;;;;13.27;5.27;;;13.50;78.30;;;;;;4752091;30;20479;-91
2023/05/24 08:01:34;;;;;;;11.98;4.30;;;13.60;79.00;;;;;;4753030;30;20059;-92
2023/05/24 08:04:04;;;;;;;10.10;5.22;;;13.60;78.40;;;;;;4753407;30;20521;-91
2023/05/24 08:06:32;;;;;;;9.75;4.63;;;13.60;78.50;;;;;;4753471;30;20048;-92
2023/05/24 08:08:59;;;;;;;11.43;4.65;;;13.50;77.90;;;;;;4738191;30;20048;-92
2023/05/24 08:11:26;;;;;;;10.40;5.03;;;13.50;78.50;;;;;;4752940;30;20143;-92
2023/05/24 08:13:53;;;;;;;11.60;6.15;;;13.50;78.60;;;;;;4752926;30;20044;-92
2023/05/24 08:16:21;;;;;;;8.55;5.35;;;13.60;79.00;;;;;;4752976;30;20090;-92
2023/05/24 08:18:48;;;;;;;12.07;7.50;;;13.70;78.80;;;;;;4767264;30;20060;-91
2023/05/24 08:21:15;;;;;;;13.40;6.90;;;13.70;78.60;;;;;;4737571;30;20105;-92
2023/05/24 08:23:42;;;;;;;12.93;7.90;;;13.70;77.90;;;;;;4756373;30;20040;-92
2023/05/24 08:26:09;;;;;;;15.85;8.85;;;13.70;78.00;;;;;;4746122;30;20078;-92
2023/05/24 08:28:37;;;;;;;19.58;10.93;;;13.70;77.70;;;;;;4752768;30;20056;-91
2023/05/24 08:31:05;;;;;;;13.93;9.30;;;13.70;78.50;;;;;;4737942;30;20055;-90
2023/05/24 08:33:32;;;;;;;12.65;8.52;;;13.70;78.10;;;;;;4737752;30;20048;-91
2023/05/24 08:35:59;;;;;;;11.90;7.77;;;13.80;78.20;;;;;;4737620;30;20079;-93
2023/05/24 08:38:27;;;;;;;42.58;33.78;;;13.70;78.00;;;;;;4752237;30;20063;-92
2023/05/24 08:40:55;;;;;;;24.35;17.55;;;13.80;78.40;;;;;;4737586;30;20052;-92
2023/05/24 08:43:23;;;;;;;11.70;7.80;;;13.70;78.40;;;;;;4737494;30;20128;-93
2023/05/24 08:45:52;;;;;;;13.98;7.43;;;13.70;77.70;;;;;;4748645;30;20052;-92
2023/05/24 08:48:20;;;;;;;13.37;8.47;;;13.70;77.80;;;;;;4752160;30;20071;-93
2023/05/24 08:50:48;;;;;;;13.40;8.00;;;13.70;78.10;;;;;;4733790;30;20118;-93
2023/05/24 08:53:20;;;;;;;11.48;6.90;;;13.70;78.20;;;;;;4752315;30;20048;-93
2023/05/24 08:55:52;;;;;;;9.50;5.15;;;13.80;77.50;;;;;;4752289;30;20060;-92
2023/05/24 08:58:19;;;;;;;10.02;5.22;;;13.80;77.40;;;;;;4752033;30;20139;-93
2023/05/24 09:00:46;;;;;;;10.57;6.33;;;13.70;78.00;;;;;;4784062;30;20055;-91
2023/05/24 09:03:14;;;;;;;10.80;6.40;;;13.70;78.50;;;;;;4758664;30;20113;-91
2023/05/24 09:05:42;;;;;;;9.63;5.35;;;13.70;79.10;;;;;;4762024;30;20052;-93
2023/05/24 09:08:10;;;;;;;15.02;6.63;;;13.80;78.00;;;;;;4769940;30;20044;-92
2023/05/24 09:10:37;;;;;;;12.88;5.65;;;13.70;78.20;;;;;;4772653;30;20044;-91
2023/05/24 09:13:23;;;;;;;9.77;5.60;;;13.80;77.60;;;;;;4765877;30;20139;-90
2023/05/24 09:15:52;;;;;;;13.50;6.97;;;13.80;77.70;;;;;;4757539;30;20401;-91
2023/05/24 09:18:19;;;;;;;10.55;5.75;;;13.80;77.90;;;;;;4754631;30;20047;-92
2023/05/24 09:20:47;;;;;;;10.68;5.95;;;13.80;78.00;;;;;;4758583;30;20135;-91
2023/05/24 09:23:15;;;;;;;12.38;6.28;;;13.80;78.40;;;;;;4766475;30;20111;-93
2023/05/24 09:25:44;;;;;;;11.63;5.73;;;14.00;78.70;;;;;;4753095;30;20499;-91
2023/05/24 09:28:14;;;;;;;11.85;6.20;;;14.00;78.40;;;;;;4762241;30;20052;-93
2023/05/24 09:30:43;;;;;;;11.43;6.63;;;14.00;77.40;;;;;;4769335;30;20047;-93
2023/05/24 09:33:12;;;;;;;11.40;5.40;;;14.00;77.60;;;;;;4764244;30;20048;-92
2023/05/24 09:35:43;;;;;;;11.65;5.78;;;14.00;77.00;;;;;;4761246;30;20051;-91
2023/05/24 09:38:17;;;;;;;10.97;6.47;;;14.00;77.30;;;;;;4754790;30;20087;-91
2023/05/24 09:40:45;;;;;;;10.30;6.10;;;13.90;77.50;;;;;;4755071;30;20058;-91
2023/05/24 09:47:15;;;;;;;13.95;8.07;;;14.00;77.90;;;;;;4769318;30;20095;-90
2023/05/24 09:49:42;;;;;;;15.35;8.52;;;14.00;77.20;;;;;;4758153;30;20109;-89
2023/05/24 09:52:13;;;;;;;14.43;6.90;;;13.90;77.40;;;;;;4754438;30;20055;-89
2023/05/24 09:54:41;;;;;;;10.00;6.00;;;14.00;77.20;;;;;;4778653;30;20051;-90
2023/05/24 09:57:10;;;;;;;14.75;6.43;;;14.00;77.70;;;;;;4754499;30;20056;-89
2023/05/24 09:59:39;;;;;;;9.85;5.40;;;13.90;78.20;;;;;;4768893;30;20048;-89
2023/05/24 10:02:09;;;;;;;11.07;5.47;;;14.00;78.00;;;;;;4754806;30;20071;-89
2023/05/24 10:04:39;;;;;;;19.93;12.13;;;14.00;77.50;;;;;;4757866;30;20495;-93
2023/05/24 10:07:07;;;;;;;13.75;7.38;;;14.00;77.60;;;;;;4743890;30;20090;-92
2023/05/24 10:09:35;;;;;;;11.52;6.78;;;14.00;77.60;;;;;;4749740;30;20055;-92
2023/05/24 10:12:07;;;;;;;30.30;16.85;;;14.00;76.90;;;;;;4769154;30;20082;-90
2023/05/24 10:14:36;;;;;;;11.55;7.30;;;14.00;77.20;;;;;;4766887;30;20134;-91
2023/05/24 10:17:05;;;;;;;14.30;7.70;;;14.00;77.20;;;;;;4755639;30;20507;-90
2023/05/24 10:19:34;;;;;;;14.23;8.73;;;14.00;76.80;;;;;;4761143;30;20047;-91
2023/05/24 10:22:06;;;;;;;12.30;8.05;;;14.00;76.90;;;;;;4757463;30;20093;-91
2023/05/24 10:24:45;;;;;;;13.35;8.23;;;14.00;77.00;;;;;;4774176;30;20055;-90
2023/05/24 10:27:17;;;;;;;12.75;6.90;;;14.00;77.00;;;;;;4761192;30;20058;-92
2023/05/24 10:29:58;;;;;;;15.50;9.80;;;13.90;76.90;;;;;;4771972;30;20055;-90
2023/05/24 10:32:30;;;;;;;13.32;8.63;;;14.00;77.60;;;;;;4771569;30;20484;-90
2023/05/24 10:34:59;;;;;;;17.27;9.65;;;14.00;76.90;;;;;;4761112;30;20051;-90
2023/05/24 10:37:26;;;;;;;33.30;22.02;;;14.00;77.20;;;;;;4756927;30;20527;-90
2023/05/24 10:39:53;;;;;;;30.27;20.85;;;14.00;76.70;;;;;;4757085;30;20521;-91
2023/05/24 10:42:21;;;;;;;12.80;8.57;;;14.10;77.20;;;;;;4757567;30;20051;-92
2023/05/24 10:44:48;;;;;;;12.02;7.75;;;14.10;76.50;;;;;;4757617;30;20082;-92
2023/05/24 10:47:16;;;;;;;13.75;8.70;;;14.10;76.30;;;;;;4765723;30;20051;-91
2023/05/24 10:49:52;;;;;;;11.55;8.00;;;14.20;76.80;;;;;;4757245;30;20056;-92
2023/05/24 10:52:19;;;;;;;11.63;6.82;;;14.20;76.70;;;;;;4766946;30;20055;-91
2023/05/24 10:55:18;;;;;;;10.43;6.17;;;14.10;76.40;;;;;;4772126;30;20087;-92
2023/05/24 10:57:45;;;;;;;12.32;7.47;;;14.10;76.70;;;;;;4743436;30;20105;-90
2023/05/24 11:00:24;;;;;;;13.20;7.75;;;14.20;76.20;;;;;;4767313;30;20060;-91
2023/05/24 11:03:02;;;;;;;13.13;7.95;;;14.20;76.90;;;;;;4772054;30;20147;-91
2023/05/24 11:05:34;;;;;;;13.73;8.07;;;14.30;76.70;;;;;;4757012;30;20056;-92
2023/05/24 11:08:03;;;;;;;13.63;8.40;;;14.40;76.60;;;;;;4771759;30;20044;-91
2023/05/24 11:10:30;;;;;;;14.77;7.88;;;14.50;76.80;;;;;;4757195;30;20052;-91
2023/05/24 11:13:01;;;;;;;12.45;7.70;;;14.50;77.00;;;;;;4771568;30;20572;-91
2023/05/24 11:15:29;;;;;;;16.98;8.20;;;14.50;75.80;;;;;;4771154;30;20120;-92
2023/05/24 11:18:08;;;;;;;13.93;8.43;;;14.50;76.00;;;;;;4757154;30;20066;-92
2023/05/24 11:20:36;;;;;;;14.07;8.47;;;14.40;75.70;;;;;;4757028;30;20115;-92
2023/05/24 11:23:05;;;;;;;13.00;8.07;;;14.50;76.10;;;;;;4745826;30;20079;-92
2023/05/24 11:25:32;;;;;;;13.50;8.63;;;14.50;75.80;;;;;;4771391;30;20044;-90
2023/05/24 11:28:00;;;;;;;13.27;8.43;;;14.50;75.60;;;;;;4763321;30;20048;-91
2023/05/24 11:30:28;;;;;;;15.60;7.78;;;14.50;75.60;;;;;;4757420;30;20052;-90
2023/05/24 11:32:55;;;;;;;14.17;7.70;;;14.50;76.00;;;;;;4771325;30;20051;-91
2023/05/24 11:35:26;;;;;;;13.82;7.45;;;14.50;75.90;;;;;;4769470;30;20052;-91
2023/05/24 11:37:54;;;;;;;11.35;7.47;;;14.50;75.60;;;;;;4778237;30;20051;-92
2023/05/24 11:40:21;;;;;;;14.82;9.20;;;14.50;75.80;;;;;;4764790;30;20069;-91
2023/05/24 11:42:49;;;;;;;16.70;9.10;;;14.50;75.80;;;;;;4771138;30;20055;-91
2023/05/24 11:45:17;;;;;;;19.03;11.17;;;14.50;75.50;;;;;;4771383;30;20515;-91
2023/05/24 11:47:44;;;;;;;16.42;12.55;;;14.50;75.40;;;;;;4756318;30;20048;-91
2023/05/24 11:50:15;;;;;;;12.57;9.02;;;14.50;75.60;;;;;;4771285;30;20059;-92
2023/05/24 11:52:42;;;;;;;13.45;9.27;;;14.60;75.20;;;;;;4756176;30;20060;-92
2023/05/24 11:55:12;;;;;;;14.85;10.32;;;14.60;75.30;;;;;;4756165;30;20055;-94
2023/05/24 11:57:48;;;;;;;15.13;10.43;;;14.70;75.60;;;;;;4757331;30;20143;-94
2023/05/24 12:00:23;;;;;;;16.88;11.38;;;14.70;75.50;;;;;;4756635;30;20143;-91
2023/05/24 12:02:51;;;;;;;16.75;11.07;;;14.70;75.40;;;;;;4765082;30;20142;-91
2023/05/24 12:05:22;;;;;;;18.52;11.02;;;14.70;74.70;;;;;;4755975;30;20507;-93
2023/05/24 12:08:03;;;;;;;17.90;10.45;;;14.70;74.60;;;;;;4770651;30;20071;-93
2023/05/24 12:10:33;;;;;;;17.50;9.93;;;14.50;75.00;;;;;;4760109;30;20122;-95
2023/05/24 12:13:06;;;;;;;19.08;9.68;;;14.40;75.20;;;;;;4757765;30;20060;-95
2023/05/24 12:15:33;;;;;;;18.00;10.32;;;14.40;75.40;;;;;;4754280;30;20056;-95
2023/05/24 12:18:00;;;;;;;15.35;10.07;;;14.30;75.80;;;;;;4753311;30;20380;-94
2023/05/24 12:20:28;;;;;;;15.20;9.30;;;14.40;75.90;;;;;;4754898;30;20060;-95
2023/05/24 12:22:55;;;;;;;19.23;11.03;;;14.40;75.50;;;;;;4740786;30;20075;-96
2023/05/24 12:25:25;;;;;;;19.40;9.50;;;14.50;75.50;;;;;;4769367;30;20052;-95
2023/05/24 12:27:55;;;;;;;15.27;9.15;;;14.50;75.40;;;;;;4757486;30;20150;-95
2023/05/24 12:30:23;;;;;;;14.90;8.68;;;14.60;75.20;;;;;;4771751;30;20063;-96
2023/05/24 12:32:53;;;;;;;15.80;9.50;;;14.60;75.30;;;;;;4756898;30;20075;-94
2023/05/24 12:35:21;;;;;;;16.87;8.93;;;14.80;74.70;;;;;;4758117;30;20143;-95
2023/05/24 12:37:48;;;;;;;16.77;8.75;;;14.80;74.50;;;;;;4771160;30;20059;-94
2023/05/24 12:40:22;;;;;;;16.42;8.80;;;14.80;74.50;;;;;;4756164;30;20078;-93
2023/05/24 12:42:58;;;;;;;15.43;8.70;;;14.90;74.30;;;;;;4755286;30;20055;-92
2023/05/24 12:45:28;;;;;;;15.35;8.70;;;15.00;74.20;;;;;;4757053;30;20139;-92
2023/05/24 12:47:58;;;;;;;15.17;8.67;;;15.00;74.10;;;;;;4769554;30;20068;-89
2023/05/24 12:50:27;;;;;;;16.33;9.10;;;15.00;74.40;;;;;;4770486;30;20461;-90
2023/05/24 12:53:22;;;;;;;15.23;8.98;;;15.10;74.20;;;;;;4771776;30;20039;-90
2023/05/24 12:56:00;;;;;;;17.05;10.55;;;15.10;74.00;;;;;;4771593;30;20056;-93
2023/05/24 12:58:27;;;;;;;15.77;9.55;;;15.00;74.20;;;;;;4769825;30;20622;-91
2023/05/24 13:10:14;;;;;;;15.40;10.20;;;15.20;73.70;;;;;;4771514;30;20097;-93
2023/05/24 13:17:08;;;;;;;14.13;9.25;;;15.30;72.90;;;;;;4771592;30;20109;-92
2023/05/24 13:19:36;;;;;;;14.93;9.87;;;15.40;72.90;;;;;;4784543;29;20052;-93
2023/05/24 13:22:03;;;;;;;15.95;9.70;;;15.30;72.80;;;;;;4772122;30;20138;-95
2023/05/24 13:24:31;;;;;;;15.52;9.25;;;15.40;73.00;;;;;;4775916;30;20048;-94
2023/05/24 13:26:58;;;;;;;15.93;9.55;;;15.40;73.80;;;;;;4772185;30;20238;-93
2023/05/24 13:29:25;;;;;;;13.57;8.52;;;15.50;74.00;;;;;;4769600;30;20085;-93
2023/05/24 13:31:56;;;;;;;14.37;9.20;;;15.50;73.20;;;;;;4755222;30;20052;-94
2023/05/24 13:34:26;;;;;;;15.57;9.05;;;15.40;73.30;;;;;;4784758;30;20062;-93
2023/05/24 13:36:54;;;;;;;14.95;8.93;;;15.20;73.80;;;;;;4770468;30;20063;-93
2023/05/24 13:39:21;;;;;;;15.65;9.95;;;15.10;73.50;;;;;;4779219;30;20461;-94
2023/05/24 13:41:48;;;;;;;13.18;9.13;;;15.00;74.20;;;;;;4758425;30;20055;-93
2023/05/24 13:44:16;;;;;;;16.03;9.87;;;15.00;74.10;;;;;;4783556;30;20138;-93
2023/05/24 13:46:43;;;;;;;16.77;10.65;;;15.10;75.10;;;;;;4773350;30;20143;-94
2023/05/24 13:49:10;;;;;;;16.77;10.40;;;15.10;74.50;;;;;;4773127;30;20070;-94
2023/05/24 13:51:39;;;;;;;17.02;11.25;;;15.10;74.60;;;;;;4758474;30;20060;-93
2023/05/24 13:54:07;;;;;;;21.52;13.02;;;15.20;75.10;;;;;;4773092;30;20051;-93
2023/05/24 13:56:35;;;;;;;20.80;13.60;;;15.10;74.40;;;;;;4773250;30;20056;-93
2023/05/24 13:59:05;;;;;;;25.83;14.63;;;15.00;74.40;;;;;;4758371;30;20063;-93
2023/05/24 14:01:36;;;;;;;25.25;14.45;;;15.00;74.50;;;;;;4772947;30;20083;-92
2023/05/24 14:04:05;;;;;;;21.85;13.98;;;14.90;74.70;;;;;;4773009;30;20147;-93
2023/05/24 14:06:33;;;;;;;22.58;14.38;;;14.90;75.20;;;;;;4768058;30;20076;-92
2023/05/24 14:09:00;;;;;;;19.77;13.37;;;14.90;75.80;;;;;;4773146;30;20051;-93
2023/05/24 14:11:30;;;;;;;22.05;13.93;;;15.00;75.50;;;;;;4773054;30;20051;-93
2023/05/24 14:13:57;;;;;;;19.83;13.05;;;15.00;75.00;;;;;;4767094;30;20056;-95
2023/05/24 14:16:28;;;;;;;19.63;12.57;;;15.00;74.50;;;;;;4743809;30;20534;-93
2023/05/24 14:18:56;;;;;;;18.23;11.60;;;15.00;74.70;;;;;;4742702;30;20054;-93
2023/05/24 14:21:25;;;;;;;20.30;12.43;;;15.10;74.10;;;;;;4757852;30;20140;-91
2023/05/24 14:23:53;;;;;;;21.02;13.48;;;15.10;73.50;;;;;;4786943;30;20138;-92
2023/05/24 14:26:22;;;;;;;21.10;13.07;;;15.20;73.80;;;;;;4741669;30;20086;-93
2023/05/24 14:28:50;;;;;;;20.10;12.50;;;15.10;74.30;;;;;;4772204;30;20051;-93
2023/05/24 14:31:22;;;;;;;22.38;13.90;;;15.10;74.20;;;;;;4758293;30;20051;-95
2023/05/24 14:33:49;;;;;;;19.93;12.40;;;15.20;74.10;;;;;;4772640;30;20059;-92
2023/05/24 14:36:16;;;;;;;21.42;12.02;;;15.10;74.10;;;;;;4757441;30;20457;-91
2023/05/24 14:38:43;;;;;;;20.55;13.38;;;15.00;74.40;;;;;;4787087;30;20113;-92
2023/05/24 14:41:10;;;;;;;20.35;13.40;;;15.00;74.80;;;;;;4757339;30;20048;-91
2023/05/24 14:43:39;;;;;;;20.42;13.10;;;15.00;74.80;;;;;;4772211;30;20048;-91
2023/05/24 14:46:06;;;;;;;21.33;12.27;;;15.00;74.10;;;;;;4757668;30;20522;-91
2023/05/24 14:48:34;;;;;;;19.55;11.95;;;14.90;74.20;;;;;;4757369;30;20055;-92
2023/05/24 14:51:03;;;;;;;21.23;12.52;;;14.90;74.50;;;;;;4786954;30;20465;-90
2023/05/24 14:53:30;;;;;;;16.95;10.95;;;15.00;74.50;;;;;;4758065;30;20503;-90
2023/05/24 14:55:58;;;;;;;20.23;11.60;;;15.00;74.20;;;;;;4771418;30;20054;-89
2023/05/24 14:58:26;;;;;;;18.77;11.43;;;15.00;74.10;;;;;;4756438;30;20129;-87
2023/05/24 15:00:52;;;;;;;17.60;11.55;;;15.00;74.50;;;;;;4771007;30;20055;-86
2023/05/24 15:03:19;;;;;;;17.85;11.85;;;15.00;74.30;;;;;;4755834;30;20044;-86
2023/05/24 15:05:47;;;;;;;18.25;10.63;;;15.00;73.70;;;;;;4770655;30;20122;-86
2023/05/24 15:12:40;;;;;;;16.07;8.97;;;15.10;74.20;;;;;;4740538;30;20514;-87
2023/05/24 15:15:08;;;;;;;19.58;9.90;;;15.20;73.60;;;;;;4759721;30;20503;-87
2023/05/24 15:17:35;;;;;;;16.27;10.32;;;15.30;74.00;;;;;;4747668;30;20054;-87
2023/05/24 15:20:03;;;;;;;15.73;8.90;;;15.30;74.20;;;;;;4773114;30;20055;-88
2023/05/24 15:22:32;;;;;;;16.13;9.10;;;15.20;73.70;;;;;;4774902;30;20043;-87
2023/05/24 15:24:59;;;;;;;13.83;7.70;;;15.20;74.20;;;;;;4762652;30;20077;-87
2023/05/24 15:27:26;;;;;;;15.25;7.40;;;15.30;73.80;;;;;;4771082;30;20044;-87
2023/05/24 15:29:57;;;;;;;16.88;7.35;;;15.30;73.80;;;;;;4771042;30;20048;-89
2023/05/24 15:32:25;;;;;;;15.27;7.25;;;15.30;73.40;;;;;;4754483;30;20139;-89